sensor_id;sensor_type;location;lat;lon;timestamp;pressure;altitude;pressure_sealevel;temperature;humidity
41898;BME280;27576;53.366;-1.498;2022-12-31T00:01:11;97976.31;;;6.94;100.00
41898;BME280;27576;53.366;-1.498;2022-12-31T00:03:37;97963.53;;;6.86;100.00
41898;BME280;27576;53.366;-1.498;2022-12-31T00:06:25;97899.59;;;6.53;100.00
41898;BME280;27576;53.366;-1.498;2022-12-31T00:08:52;97974.63;;;6.93;100.00
41898;BME280;27576;53.366;-1.498;2022-12-31T00:11:18;97949.03;;;6.79;100.00
41898;BME280;27576;53.366;-1.498;2022-12-31T00:13:44;97968.63;;;6.93;100.00
41898;BME280;27576;53.366;-1.498;2022-12-31T00:16:18;97962.59;;;6.94;100.00
41898;BME280;27576;53.366;-1.498;2022-12-31T00:18:48;97971.16;;;6.94;100.00
41898;BME280;27576;53.366;-1.498;2022-12-31T00:21:14;97939.63;;;6.75;100.00
41898;BME280;27576;53.366;-1.498;2022-12-31T00:23:40;97972.88;;;6.95;100.00
41898;BME280;27576;53.366;-1.498;2022-12-31T00:26:08;97971.22;;;6.89;100.00
41898;BME280;27576;53.366;-1.498;2022-12-31T00:28:34;97961.88;;;6.84;100.00
41898;BME280;27576;53.366;-1.498;2022-12-31T00:31:10;97973.69;;;6.99;100.00
41898;BME280;27576;53.366;-1.498;2022-12-31T00:33:36;97947.25;;;6.86;100.00
41898;BME280;27576;53.366;-1.498;2022-12-31T00:36:10;97971.19;;;6.93;100.00
41898;BME280;27576;53.366;-1.498;2022-12-31T00:38:37;97973.72;;;6.97;100.00
41898;BME280;27576;53.366;-1.498;2022-12-31T00:41:03;97982.25;;;6.99;100.00
41898;BME280;27576;53.366;-1.498;2022-12-31T00:43:29;97962.59;;;6.94;100.00
41898;BME280;27576;53.366;-1.498;2022-12-31T00:45:55;97943.81;;;6.85;100.00
41898;BME280;27576;53.366;-1.498;2022-12-31T00:48:20;97955.75;;;6.93;100.00
41898;BME280;27576;53.366;-1.498;2022-12-31T00:50:46;97937.81;;;6.83;100.00
41898;BME280;27576;53.366;-1.498;2022-12-31T00:53:11;97960.84;;;6.97;100.00
41898;BME280;27576;53.366;-1.498;2022-12-31T00:55:36;97975.34;;;7.04;100.00
41898;BME280;27576;53.366;-1.498;2022-12-31T00:58:02;97967.63;;;7.03;100.00
41898;BME280;27576;53.366;-1.498;2022-12-31T01:00:27;97938.66;;;6.88;100.00
41898;BME280;27576;53.366;-1.498;2022-12-31T01:02:55;97967.63;;;7.03;100.00
41898;BME280;27576;53.366;-1.498;2022-12-31T01:05:21;97953.97;;;6.98;100.00
41898;BME280;27576;53.366;-1.498;2022-12-31T01:07:46;97930.16;;;6.80;100.00
41898;BME280;27576;53.366;-1.498;2022-12-31T01:10:11;97911.38;;;6.72;100.00
41898;BME280;27576;53.366;-1.498;2022-12-31T01:12:58;97952.31;;;6.94;100.00
41898;BME280;27576;53.366;-1.498;2022-12-31T01:15:23;97955.72;;;6.96;100.00
41898;BME280;27576;53.366;-1.498;2022-12-31T01:17:49;97955.75;;;6.91;100.00
41898;BME280;27576;53.366;-1.498;2022-12-31T01:20:14;97954.91;;;6.91;100.00
41898;BME280;27576;53.366;-1.498;2022-12-31T01:22:39;97981.34;;;7.03;100.00
41898;BME280;27576;53.366;-1.498;2022-12-31T01:25:05;97970.25;;;6.98;100.00
41898;BME280;27576;53.366;-1.498;2022-12-31T01:27:30;97935.22;;;6.86;100.00
41898;BME280;27576;53.366;-1.498;2022-12-31T01:29:56;97951.38;;;6.99;100.00
41898;BME280;27576;53.366;-1.498;2022-12-31T01:32:21;97934.34;;;6.89;100.00
41898;BME280;27576;53.366;-1.498;2022-12-31T01:34:46;97965.06;;;7.04;100.00
41898;BME280;27576;53.366;-1.498;2022-12-31T01:37:12;97967.72;;;6.97;100.00
41898;BME280;27576;53.366;-1.498;2022-12-31T01:39:37;97976.28;;;6.97;100.00
41898;BME280;27576;53.366;-1.498;2022-12-31T01:42:03;97973.69;;;7.00;100.00
41898;BME280;27576;53.366;-1.498;2022-12-31T01:46:56;97965.94;;;7.02;100.00
41898;BME280;27576;53.366;-1.498;2022-12-31T01:49:36;97971.06;;;7.05;100.00
41898;BME280;27576;53.366;-1.498;2022-12-31T01:52:08;97964.28;;;6.96;100.00
41898;BME280;27576;53.366;-1.498;2022-12-31T01:54:39;97938.66;;;6.85;100.00
41898;BME280;27576;53.366;-1.498;2022-12-31T01:57:06;97952.31;;;6.94;100.00
41898;BME280;27576;53.366;-1.498;2022-12-31T01:59:33;97908.72;;;6.78;100.00
41898;BME280;27576;53.366;-1.498;2022-12-31T02:01:59;97962.47;;;7.03;100.00
41898;BME280;27576;53.366;-1.498;2022-12-31T02:04:25;97989.00;;;7.09;100.00
41898;BME280;27576;53.366;-1.498;2022-12-31T02:06:59;97991.63;;;7.08;100.00
41898;BME280;27576;53.366;-1.498;2022-12-31T02:09:24;98003.50;;;7.18;100.00
41898;BME280;27576;53.366;-1.498;2022-12-31T02:11:50;97977.88;;;7.09;100.00
41898;BME280;27576;53.366;-1.498;2022-12-31T02:14:20;97997.44;;;7.22;100.00
41898;BME280;27576;53.366;-1.498;2022-12-31T02:17:26;98013.72;;;7.27;100.00
41898;BME280;27576;53.366;-1.498;2022-12-31T02:31:16;98007.59;;;7.34;100.00
41898;BME280;27576;53.366;-1.498;2022-12-31T02:33:57;98005.00;;;7.34;100.00
41898;BME280;27576;53.366;-1.498;2022-12-31T02:36:32;97993.13;;;7.24;100.00
41898;BME280;27576;53.366;-1.498;2022-12-31T02:38:59;97999.06;;;7.29;100.00
41898;BME280;27576;53.366;-1.498;2022-12-31T02:41:26;97991.31;;;7.32;100.00
41898;BME280;27576;53.366;-1.498;2022-12-31T02:44:23;97990.44;;;7.33;100.00
41898;BME280;27576;53.366;-1.498;2022-12-31T02:47:12;97995.63;;;7.32;100.00
41898;BME280;27576;53.366;-1.498;2022-12-31T02:50:00;97992.19;;;7.31;100.00
41898;BME280;27576;53.366;-1.498;2022-12-31T02:58:02;97998.19;;;7.30;100.00
41898;BME280;27576;53.366;-1.498;2022-12-31T03:00:31;97972.69;;;7.12;100.00
41898;BME280;27576;53.366;-1.498;2022-12-31T03:03:18;98017.06;;;7.31;100.00
41898;BME280;27576;53.366;-1.498;2022-12-31T03:05:45;98023.09;;;7.30;100.00
41898;BME280;27576;53.366;-1.498;2022-12-31T03:08:23;97998.38;;;7.15;100.00
41898;BME280;27576;53.366;-1.498;2022-12-31T03:10:49;98015.41;;;7.28;100.00
41898;BME280;27576;53.366;-1.498;2022-12-31T03:13:14;97999.22;;;7.17;100.00
41898;BME280;27576;53.366;-1.498;2022-12-31T03:15:40;98023.94;;;7.32;100.00
41898;BME280;27576;53.366;-1.498;2022-12-31T03:18:14;98007.66;;;7.31;100.00
41898;BME280;27576;53.366;-1.498;2022-12-31T03:23:35;98023.97;;;7.29;100.00
41898;BME280;27576;53.366;-1.498;2022-12-31T03:26:01;98006.91;;;7.20;100.00
41898;BME280;27576;53.366;-1.498;2022-12-31T03:28:28;98020.59;;;7.25;100.00
41898;BME280;27576;53.366;-1.498;2022-12-31T03:30:59;97987.31;;;7.08;100.00
41898;BME280;27576;53.366;-1.498;2022-12-31T03:33:29;97985.63;;;7.06;100.00
41898;BME280;27576;53.366;-1.498;2022-12-31T03:35:55;97985.53;;;7.13;100.00
41898;BME280;27576;53.366;-1.498;2022-12-31T03:38:20;98000.91;;;7.18;100.00
41898;BME280;27576;53.366;-1.498;2022-12-31T03:40:48;97994.16;;;7.09;100.00
41898;BME280;27576;53.366;-1.498;2022-12-31T03:43:14;98010.38;;;7.18;100.00
41898;BME280;27576;53.366;-1.498;2022-12-31T03:45:40;98005.31;;;7.10;100.00
41898;BME280;27576;53.366;-1.498;2022-12-31T03:48:06;98001.84;;;7.14;100.00
41898;BME280;27576;53.366;-1.498;2022-12-31T03:50:32;97978.78;;;7.05;100.00
41898;BME280;27576;53.366;-1.498;2022-12-31T03:52:58;97974.50;;;7.04;100.00
41898;BME280;27576;53.366;-1.498;2022-12-31T03:55:24;97977.94;;;7.04;100.00
41898;BME280;27576;53.366;-1.498;2022-12-31T03:57:49;97988.16;;;7.09;100.00
41898;BME280;27576;53.366;-1.498;2022-12-31T04:00:17;98003.66;;;7.07;100.00
41898;BME280;27576;53.366;-1.498;2022-12-31T04:02:43;97996.81;;;7.05;100.00
41898;BME280;27576;53.366;-1.498;2022-12-31T04:05:09;97969.38;;;6.99;100.00
41898;BME280;27576;53.366;-1.498;2022-12-31T04:07:35;97950.56;;;6.94;100.00
41898;BME280;27576;53.366;-1.498;2022-12-31T04:10:01;97985.53;;;7.13;100.00
41898;BME280;27576;53.366;-1.498;2022-12-31T04:12:27;97951.47;;;6.90;100.00
41898;BME280;27576;53.366;-1.498;2022-12-31T04:14:53;97980.47;;;7.06;100.00
41898;BME280;27576;53.366;-1.498;2022-12-31T04:17:18;97967.69;;;7.00;100.00
41898;BME280;27576;53.366;-1.498;2022-12-31T04:19:43;97958.34;;;6.93;100.00
41898;BME280;27576;53.366;-1.498;2022-12-31T04:22:09;97971.13;;;6.99;100.00
41898;BME280;27576;53.366;-1.498;2022-12-31T04:24:34;97979.56;;;7.11;100.00
41898;BME280;27576;53.366;-1.498;2022-12-31T04:26:59;97979.59;;;7.08;100.00
41898;BME280;27576;53.366;-1.498;2022-12-31T04:29:25;97954.03;;;6.92;100.00
41898;BME280;27576;53.366;-1.498;2022-12-31T04:31:50;98006.09;;;7.17;100.00
41898;BME280;27576;53.366;-1.498;2022-12-31T04:34:16;98011.22;;;7.20;100.00
41898;BME280;27576;53.366;-1.498;2022-12-31T04:36:41;97981.31;;;7.06;100.00
41898;BME280;27576;53.366;-1.498;2022-12-31T04:39:06;97932.78;;;6.74;100.00
41898;BME280;27576;53.366;-1.498;2022-12-31T04:41:32;98015.53;;;7.18;100.00
41898;BME280;27576;53.366;-1.498;2022-12-31T04:43:58;98006.91;;;7.19;100.00
41898;BME280;27576;53.366;-1.498;2022-12-31T04:46:26;98013.84;;;7.17;100.00
41898;BME280;27576;53.366;-1.498;2022-12-31T04:48:52;98012.94;;;7.19;100.00
41898;BME280;27576;53.366;-1.498;2022-12-31T04:51:18;98013.81;;;7.18;100.00
41898;BME280;27576;53.366;-1.498;2022-12-31T04:53:44;98006.91;;;7.20;100.00
41898;BME280;27576;53.366;-1.498;2022-12-31T04:56:09;97988.09;;;7.13;100.00
41898;BME280;27576;53.366;-1.498;2022-12-31T04:58:36;98005.22;;;7.19;100.00
41898;BME280;27576;53.366;-1.498;2022-12-31T05:01:02;97967.69;;;7.00;100.00
41898;BME280;27576;53.366;-1.498;2022-12-31T05:03:28;97990.63;;;7.18;100.00
41898;BME280;27576;53.366;-1.498;2022-12-31T05:05:58;97958.31;;;6.94;100.00
41898;BME280;27576;53.366;-1.498;2022-12-31T05:08:23;98001.81;;;7.17;100.00
41898;BME280;27576;53.366;-1.498;2022-12-31T05:10:49;97930.16;;;6.80;100.00
41898;BME280;27576;53.366;-1.498;2022-12-31T05:13:14;97976.06;;;7.14;100.00
41898;BME280;27576;53.366;-1.498;2022-12-31T05:15:40;97952.97;;;7.09;100.00
41898;BME280;27576;53.366;-1.498;2022-12-31T05:18:06;97968.38;;;7.12;100.00
41898;BME280;27576;53.366;-1.498;2022-12-31T05:20:32;97869.56;;;6.56;100.00
41898;BME280;27576;53.366;-1.498;2022-12-31T05:22:58;97958.19;;;7.03;100.00
41898;BME280;27576;53.366;-1.498;2022-12-31T05:25:23;97976.94;;;7.16;100.00
41898;BME280;27576;53.366;-1.498;2022-12-31T05:27:49;97963.28;;;7.06;100.00
41898;BME280;27576;53.366;-1.498;2022-12-31T05:30:14;97965.91;;;7.03;100.00
41898;BME280;27576;53.366;-1.498;2022-12-31T05:32:40;97947.91;;;7.02;100.00
41898;BME280;27576;53.366;-1.498;2022-12-31T05:35:06;97973.47;;;7.17;100.00
41898;BME280;27576;53.366;-1.498;2022-12-31T05:37:32;97979.47;;;7.19;100.00
41898;BME280;27576;53.366;-1.498;2022-12-31T05:39:57;97975.25;;;7.12;100.00
41898;BME280;27576;53.366;-1.498;2022-12-31T05:42:23;97950.50;;;7.00;100.00
41898;BME280;27576;53.366;-1.498;2022-12-31T05:44:48;97987.16;;;7.21;100.00
41898;BME280;27576;53.366;-1.498;2022-12-31T05:47:14;97972.72;;;7.09;100.00
41898;BME280;27576;53.366;-1.498;2022-12-31T05:49:40;97982.03;;;7.19;100.00
41898;BME280;27576;53.366;-1.498;2022-12-31T05:52:06;97966.59;;;7.19;100.00
41898;BME280;27576;53.366;-1.498;2022-12-31T05:54:31;97971.69;;;7.24;100.00
41898;BME280;27576;53.366;-1.498;2022-12-31T05:56:57;97963.22;;;7.11;100.00
41898;BME280;27576;53.366;-1.498;2022-12-31T05:59:22;97947.00;;;7.07;100.00
41898;BME280;27576;53.366;-1.498;2022-12-31T06:01:48;97979.41;;;7.22;100.00
41898;BME280;27576;53.366;-1.498;2022-12-31T06:04:13;97999.16;;;7.22;100.00
41898;BME280;27576;53.366;-1.498;2022-12-31T06:06:39;97977.84;;;7.12;100.00
41898;BME280;27576;53.366;-1.498;2022-12-31T06:09:04;97993.16;;;7.21;100.00
41898;BME280;27576;53.366;-1.498;2022-12-31T06:11:29;97965.06;;;7.03;100.00
41898;BME280;27576;53.366;-1.498;2022-12-31T06:13:55;97986.28;;;7.23;100.00
41898;BME280;27576;53.366;-1.498;2022-12-31T06:16:22;97919.75;;;6.89;100.00
41898;BME280;27576;53.366;-1.498;2022-12-31T06:18:47;97971.69;;;7.24;100.00
41898;BME280;27576;53.366;-1.498;2022-12-31T06:21:17;97929.84;;;7.05;100.00
41898;BME280;27576;53.366;-1.498;2022-12-31T06:23:43;97949.41;;;7.20;100.00
41898;BME280;27576;53.366;-1.498;2022-12-31T06:26:08;97927.19;;;7.12;100.00
41898;BME280;27576;53.366;-1.498;2022-12-31T06:28:34;97929.00;;;7.03;100.00
41898;BME280;27576;53.366;-1.498;2022-12-31T06:31:04;97976.78;;;7.25;100.00
41898;BME280;27576;53.366;-1.498;2022-12-31T06:33:30;97951.34;;;7.04;100.00
41898;BME280;27576;53.366;-1.498;2022-12-31T06:35:57;97984.53;;;7.25;100.00
41898;BME280;27576;53.366;-1.498;2022-12-31T06:38:26;97972.59;;;7.18;100.00
41898;BME280;27576;53.366;-1.498;2022-12-31T06:40:52;97979.38;;;7.25;100.00
41898;BME280;27576;53.366;-1.498;2022-12-31T06:43:17;97942.69;;;7.08;100.00
41898;BME280;27576;53.366;-1.498;2022-12-31T06:45:43;97981.06;;;7.26;100.00
41898;BME280;27576;53.366;-1.498;2022-12-31T06:48:08;97996.53;;;7.26;100.00
41898;BME280;27576;53.366;-1.498;2022-12-31T06:50:34;97988.03;;;7.20;100.00
41898;BME280;27576;53.366;-1.498;2022-12-31T06:52:59;97976.16;;;7.08;100.00
41898;BME280;27576;53.366;-1.498;2022-12-31T06:55:25;98006.81;;;7.28;100.00
41898;BME280;27576;53.366;-1.498;2022-12-31T06:57:51;98005.13;;;7.25;100.00
41898;BME280;27576;53.366;-1.498;2022-12-31T07:00:17;97991.38;;;7.26;100.00
41898;BME280;27576;53.366;-1.498;2022-12-31T07:08:32;98009.38;;;7.29;100.00
41898;BME280;27576;53.366;-1.498;2022-12-31T07:13:46;98000.78;;;7.29;100.00
41898;BME280;27576;53.366;-1.498;2022-12-31T07:16:29;97974.41;;;7.10;100.00
41898;BME280;27576;53.366;-1.498;2022-12-31T07:21:36;98018.78;;;7.30;100.00
41898;BME280;27576;53.366;-1.498;2022-12-31T07:24:04;98017.06;;;7.31;100.00
41898;BME280;27576;53.366;-1.498;2022-12-31T07:29:13;98029.06;;;7.33;100.00
41898;BME280;27576;53.366;-1.498;2022-12-31T07:34:50;98024.81;;;7.29;100.00
41898;BME280;27576;53.366;-1.498;2022-12-31T07:43:15;98052.16;;;7.41;100.00
41898;BME280;27576;53.366;-1.498;2022-12-31T07:45:49;98036.75;;;7.40;100.00
41898;BME280;27576;53.366;-1.498;2022-12-31T07:48:25;98024.69;;;7.40;100.00
41898;BME280;27576;53.366;-1.498;2022-12-31T07:50:52;98029.84;;;7.40;100.00
41898;BME280;27576;53.366;-1.498;2022-12-31T07:53:22;98019.78;;;7.22;100.00
41898;BME280;27576;53.366;-1.498;2022-12-31T07:55:57;98049.78;;;7.27;100.00
41898;BME280;27576;53.366;-1.498;2022-12-31T08:01:11;98079.69;;;7.39;100.00
41898;BME280;27576;53.366;-1.498;2022-12-31T08:06:11;98113.19;;;7.37;100.00
41898;BME280;27576;53.366;-1.498;2022-12-31T08:08:49;98122.63;;;7.37;100.00
41898;BME280;27576;53.366;-1.498;2022-12-31T08:14:12;98101.31;;;7.24;100.00
41898;BME280;27576;53.366;-1.498;2022-12-31T08:16:39;98108.16;;;7.25;100.00
41898;BME280;27576;53.366;-1.498;2022-12-31T08:19:05;98098.06;;;7.08;100.00
41898;BME280;27576;53.366;-1.498;2022-12-31T08:21:42;98088.72;;;6.97;100.00
41898;BME280;27576;53.366;-1.498;2022-12-31T08:27:13;98105.91;;;6.96;100.00
41898;BME280;27576;53.366;-1.498;2022-12-31T08:29:50;98108.56;;;6.88;100.00
41898;BME280;27576;53.366;-1.498;2022-12-31T08:32:27;98137.63;;;7.00;100.00
41898;BME280;27576;53.366;-1.498;2022-12-31T08:37:43;98100.22;;;6.60;100.00
41898;BME280;27576;53.366;-1.498;2022-12-31T08:43:12;98155.81;;;6.81;100.00
41898;BME280;27576;53.366;-1.498;2022-12-31T08:45:47;98152.38;;;6.79;100.00
41898;BME280;27576;53.366;-1.498;2022-12-31T08:48:39;98156.69;;;6.80;100.00
41898;BME280;27576;53.366;-1.498;2022-12-31T08:51:07;98150.75;;;6.72;100.00
41898;BME280;27576;53.366;-1.498;2022-12-31T08:53:37;98140.50;;;6.64;100.00
41898;BME280;27576;53.366;-1.498;2022-12-31T08:56:23;98148.19;;;6.69;100.00
41898;BME280;27576;53.366;-1.498;2022-12-31T09:04:49;98165.28;;;6.76;100.00
41898;BME280;27576;53.366;-1.498;2022-12-31T09:07:27;98140.50;;;6.64;100.00
41898;BME280;27576;53.366;-1.498;2022-12-31T09:10:20;98179.78;;;6.83;100.00
41898;BME280;27576;53.366;-1.498;2022-12-31T09:15:30;98166.19;;;6.69;100.00
41898;BME280;27576;53.366;-1.498;2022-12-31T09:17:58;98190.97;;;6.84;100.00
41898;BME280;27576;53.366;-1.498;2022-12-31T09:20:32;98202.97;;;6.83;100.00
41898;BME280;27576;53.366;-1.498;2022-12-31T09:22:58;98161.94;;;6.68;100.00
41898;BME280;27576;53.366;-1.498;2022-12-31T09:25:25;98174.72;;;6.74;100.00
41898;BME280;27576;53.366;-1.498;2022-12-31T09:28:16;98204.63;;;6.92;100.00
41898;BME280;27576;53.366;-1.498;2022-12-31T09:30:57;98206.31;;;6.95;100.00
41898;BME280;27576;53.366;-1.498;2022-12-31T09:33:50;98210.59;;;6.97;100.00
41898;BME280;27576;53.366;-1.498;2022-12-31T09:36:35;98230.34;;;6.97;100.00
41898;BME280;27576;53.366;-1.498;2022-12-31T09:50:58;98214.06;;;6.90;100.00
41898;BME280;27576;53.366;-1.498;2022-12-31T09:53:45;98240.53;;;7.09;100.00
41898;BME280;27576;53.366;-1.498;2022-12-31T09:59:29;98210.56;;;6.99;100.00
41898;BME280;27576;53.366;-1.498;2022-12-31T10:08:46;98255.84;;;7.27;100.00
41898;BME280;27576;53.366;-1.498;2022-12-31T10:11:32;98249.81;;;7.31;100.00
41898;BME280;27576;53.366;-1.498;2022-12-31T10:16:54;98225.78;;;7.28;100.00
41898;BME280;27576;53.366;-1.498;2022-12-31T10:25:19;98255.69;;;7.43;100.00
41898;BME280;27576;53.366;-1.498;2022-12-31T10:27:54;98252.25;;;7.44;100.00
41898;BME280;27576;53.366;-1.498;2022-12-31T10:30:24;98236.03;;;7.31;100.00
41898;BME280;27576;53.366;-1.498;2022-12-31T10:33:16;98265.13;;;7.47;100.00
41898;BME280;27576;53.366;-1.498;2022-12-31T10:35:52;98267.72;;;7.47;100.00
41898;BME280;27576;53.366;-1.498;2022-12-31T11:01:47;98242.91;;;7.30;100.00
41898;BME280;27576;53.366;-1.498;2022-12-31T11:04:49;98246.31;;;7.34;100.00
41898;BME280;27576;53.366;-1.498;2022-12-31T11:07:46;98253.13;;;7.41;100.00
41898;BME280;27576;53.366;-1.498;2022-12-31T11:16:02;98264.28;;;7.45;100.00
41898;BME280;27576;53.366;-1.498;2022-12-31T11:26:58;98250.44;;;7.53;100.00
41898;BME280;27576;53.366;-1.498;2022-12-31T11:30:00;98240.97;;;7.54;100.00
41898;BME280;27576;53.366;-1.498;2022-12-31T11:35:27;98250.38;;;7.58;100.00
41898;BME280;27576;53.366;-1.498;2022-12-31T11:38:27;98248.66;;;7.60;100.00
41898;BME280;27576;53.366;-1.498;2022-12-31T11:40:59;98250.38;;;7.62;100.00
41898;BME280;27576;53.366;-1.498;2022-12-31T11:43:51;98240.84;;;7.66;100.00
41898;BME280;27576;53.366;-1.498;2022-12-31T11:49:49;98236.50;;;7.73;100.00
41898;BME280;27576;53.366;-1.498;2022-12-31T11:57:17;98219.19;;;7.84;100.00
41898;BME280;27576;53.366;-1.498;2022-12-31T11:59:45;98197.84;;;7.71;100.00
41898;BME280;27576;53.366;-1.498;2022-12-31T12:02:24;98213.13;;;7.88;100.00
41898;BME280;27576;53.366;-1.498;2022-12-31T12:04:51;98201.09;;;7.88;100.00
41898;BME280;27576;53.366;-1.498;2022-12-31T12:07:17;98199.34;;;7.89;100.00
41898;BME280;27576;53.366;-1.498;2022-12-31T12:09:44;98184.88;;;7.79;100.00
41898;BME280;27576;53.366;-1.498;2022-12-31T12:12:10;98155.84;;;7.63;100.00
41898;BME280;27576;53.366;-1.498;2022-12-31T12:14:37;98201.94;;;7.91;100.00
41898;BME280;27576;53.366;-1.498;2022-12-31T12:17:05;98202.78;;;7.91;100.00
41898;BME280;27576;53.366;-1.498;2022-12-31T12:19:33;98194.25;;;7.86;100.00
41898;BME280;27576;53.366;-1.498;2022-12-31T12:22:12;98172.88;;;7.76;100.00
41898;BME280;27576;53.366;-1.498;2022-12-31T12:24:54;98172.00;;;7.79;100.00
41898;BME280;27576;53.366;-1.498;2022-12-31T12:27:23;98173.66;;;7.81;100.00
41898;BME280;27576;53.366;-1.498;2022-12-31T12:29:48;98176.22;;;7.84;100.00
41898;BME280;27576;53.366;-1.498;2022-12-31T12:32:20;98195.72;;;8.05;100.00
41898;BME280;27576;53.366;-1.498;2022-12-31T12:34:46;98194.66;;;8.20;100.00
41898;BME280;27576;53.366;-1.498;2022-12-31T12:40:04;98191.84;;;8.40;100.00
41898;BME280;27576;53.366;-1.498;2022-12-31T12:42:30;98197.81;;;8.45;100.00
41898;BME280;27576;53.366;-1.498;2022-12-31T12:45:04;98162.66;;;8.38;100.00
41898;BME280;27576;53.366;-1.498;2022-12-31T12:47:30;98170.34;;;8.40;100.00
41898;BME280;27576;53.366;-1.498;2022-12-31T12:49:57;98190.81;;;8.52;100.00
41898;BME280;27576;53.366;-1.498;2022-12-31T12:52:46;98199.31;;;8.60;100.00
41898;BME280;27576;53.366;-1.498;2022-12-31T12:55:29;98185.66;;;8.53;100.00
41898;BME280;27576;53.366;-1.498;2022-12-31T13:12:00;98168.94;;;8.77;100.00
41898;BME280;27576;53.366;-1.498;2022-12-31T13:14:52;98168.91;;;8.79;100.00
41898;BME280;27576;53.366;-1.498;2022-12-31T13:20:00;98158.53;;;8.82;100.00
41898;BME280;27576;53.366;-1.498;2022-12-31T13:22:37;98117.50;;;8.65;100.00
41898;BME280;27576;53.366;-1.498;2022-12-31T13:27:57;98123.22;;;8.82;100.00
41898;BME280;27576;53.366;-1.498;2022-12-31T13:30:47;98127.50;;;8.85;100.00
41898;BME280;27576;53.366;-1.498;2022-12-31T13:33:19;98140.31;;;8.88;100.00
41898;BME280;27576;53.366;-1.498;2022-12-31T13:36:01;98130.03;;;8.87;100.00
41898;BME280;27576;53.366;-1.498;2022-12-31T13:38:41;98136.88;;;8.89;100.00
41898;BME280;27576;53.366;-1.498;2022-12-31T13:41:28;98111.28;;;8.75;100.00
41898;BME280;27576;53.366;-1.498;2022-12-31T13:47:38;98131.72;;;8.88;100.00
41898;BME280;27576;53.366;-1.498;2022-12-31T13:50:19;98136.94;;;8.86;100.00
41898;BME280;27576;53.366;-1.498;2022-12-31T13:52:55;98132.63;;;8.87;100.00
41898;BME280;27576;53.366;-1.498;2022-12-31T13:58:20;98139.47;;;8.88;100.00
41898;BME280;27576;53.366;-1.498;2022-12-31T14:00:55;98095.91;;;8.69;100.00
41898;BME280;27576;53.366;-1.498;2022-12-31T14:03:50;98118.22;;;8.73;100.00
41898;BME280;27576;53.366;-1.498;2022-12-31T14:09:19;98127.50;;;8.85;100.00
41898;BME280;27576;53.366;-1.498;2022-12-31T14:20:30;98105.22;;;8.78;100.00
41898;BME280;27576;53.366;-1.498;2022-12-31T14:25:39;98070.22;;;8.62;100.00
41898;BME280;27576;53.366;-1.498;2022-12-31T14:28:15;98088.94;;;8.74;100.00
41898;BME280;27576;53.366;-1.498;2022-12-31T14:30:44;98092.28;;;8.79;100.00
41898;BME280;27576;53.366;-1.498;2022-12-31T14:33:33;98067.59;;;8.63;100.00
41898;BME280;27576;53.366;-1.498;2022-12-31T14:36:09;98098.31;;;8.78;100.00
41898;BME280;27576;53.366;-1.498;2022-12-31T14:38:50;98099.22;;;8.77;100.00
41898;BME280;27576;53.366;-1.498;2022-12-31T14:46:34;98097.59;;;8.70;100.00
41898;BME280;27576;53.366;-1.498;2022-12-31T14:52:07;98078.81;;;8.60;100.00
41898;BME280;27576;53.366;-1.498;2022-12-31T14:54:36;98090.84;;;8.63;100.00
41898;BME280;27576;53.366;-1.498;2022-12-31T14:57:09;98118.16;;;8.76;100.00
41898;BME280;27576;53.366;-1.498;2022-12-31T14:59:35;98104.50;;;8.68;100.00
41898;BME280;27576;53.366;-1.498;2022-12-31T15:02:01;98108.88;;;8.66;100.00
41898;BME280;27576;53.366;-1.498;2022-12-31T15:04:32;98089.19;;;8.59;100.00
41898;BME280;27576;53.366;-1.498;2022-12-31T15:07:20;98108.81;;;8.69;100.00
41898;BME280;27576;53.366;-1.498;2022-12-31T15:12:43;98123.50;;;8.66;100.00
41898;BME280;27576;53.366;-1.498;2022-12-31T15:15:55;98127.81;;;8.64;100.00
41898;BME280;27576;53.366;-1.498;2022-12-31T15:18:45;98126.97;;;8.63;100.00
41898;BME280;27576;53.366;-1.498;2022-12-31T15:21:25;98123.59;;;8.61;100.00
41898;BME280;27576;53.366;-1.498;2022-12-31T15:23:53;98091.25;;;8.39;100.00
41898;BME280;27576;53.366;-1.498;2022-12-31T15:26:30;98112.66;;;8.45;100.00
41898;BME280;27576;53.366;-1.498;2022-12-31T15:29:07;98131.38;;;8.56;100.00
41898;BME280;27576;53.366;-1.498;2022-12-31T15:31:44;98128.03;;;8.51;100.00
41898;BME280;27576;53.366;-1.498;2022-12-31T15:34:43;98134.03;;;8.53;100.00
41898;BME280;27576;53.366;-1.498;2022-12-31T15:37:33;98140.03;;;8.54;100.00
41898;BME280;27576;53.366;-1.498;2022-12-31T15:42:51;98122.09;;;8.45;100.00
41898;BME280;27576;53.366;-1.498;2022-12-31T15:45:40;98145.25;;;8.51;100.00
41898;BME280;27576;53.366;-1.498;2022-12-31T15:48:18;98133.34;;;8.42;100.00
41898;BME280;27576;53.366;-1.498;2022-12-31T15:50:48;98140.97;;;8.50;100.00
41898;BME280;27576;53.366;-1.498;2022-12-31T15:53:38;98130.75;;;8.42;100.00
41898;BME280;27576;53.366;-1.498;2022-12-31T15:56:06;98123.00;;;8.41;100.00
41898;BME280;27576;53.366;-1.498;2022-12-31T15:58:34;98107.59;;;8.38;100.00
41898;BME280;27576;53.366;-1.498;2022-12-31T16:01:20;98123.75;;;8.49;100.00
41898;BME280;27576;53.366;-1.498;2022-12-31T16:03:59;98115.22;;;8.44;100.00
41898;BME280;27576;53.366;-1.498;2022-12-31T16:06:28;98123.75;;;8.49;100.00
41898;BME280;27576;53.366;-1.498;2022-12-31T16:08:54;98099.88;;;8.34;100.00
41898;BME280;27576;53.366;-1.498;2022-12-31T16:11:20;98093.94;;;8.28;100.00
41898;BME280;27576;53.366;-1.498;2022-12-31T16:13:49;98131.56;;;8.46;100.00
41898;BME280;27576;53.366;-1.498;2022-12-31T16:16:28;98134.09;;;8.47;100.00
41898;BME280;27576;53.366;-1.498;2022-12-31T16:18:55;98133.28;;;8.45;100.00
41898;BME280;27576;53.366;-1.498;2022-12-31T16:21:32;98115.34;;;8.38;100.00
41898;BME280;27576;53.366;-1.498;2022-12-31T16:24:28;98140.13;;;8.49;100.00
41898;BME280;27576;53.366;-1.498;2022-12-31T16:26:57;98117.88;;;8.39;100.00
41898;BME280;27576;53.366;-1.498;2022-12-31T16:29:24;98105.06;;;8.31;100.00
41898;BME280;27576;53.366;-1.498;2022-12-31T16:31:51;98100.78;;;8.29;100.00
41898;BME280;27576;53.366;-1.498;2022-12-31T16:34:23;98093.94;;;8.28;100.00
41898;BME280;27576;53.366;-1.498;2022-12-31T16:39:33;98128.97;;;8.46;100.00
41898;BME280;27576;53.366;-1.498;2022-12-31T16:42:26;98127.25;;;8.45;100.00